sensor_id;sensor_type;location;lat;lon;timestamp;temperature;humidity
70830;SHT30;58451;51.550;7.208;2022-09-03T00:00:12;15.27;49.93
70830;SHT30;58451;51.550;7.208;2022-09-03T00:03:02;15.21;50.03
70830;SHT30;58451;51.550;7.208;2022-09-03T00:05:44;15.16;50.17
70830;SHT30;58451;51.550;7.208;2022-09-03T00:11:24;15.07;50.55
70830;SHT30;58451;51.550;7.208;2022-09-03T00:16:45;15.03;50.97
70830;SHT30;58451;51.550;7.208;2022-09-03T00:19:27;14.99;51.16
70830;SHT30;58451;51.550;7.208;2022-09-03T00:22:08;14.97;51.39
70830;SHT30;58451;51.550;7.208;2022-09-03T00:24:43;14.96;51.64
70830;SHT30;58451;51.550;7.208;2022-09-03T00:27:16;14.94;51.75
70830;SHT30;58451;51.550;7.208;2022-09-03T00:30:00;14.93;51.87
70830;SHT30;58451;51.550;7.208;2022-09-03T00:32:39;14.91;52.03
70830;SHT30;58451;51.550;7.208;2022-09-03T00:38:02;14.88;52.14
70830;SHT30;58451;51.550;7.208;2022-09-03T00:49:22;14.84;52.43
70830;SHT30;58451;51.550;7.208;2022-09-03T01:01:29;14.75;52.60
70830;SHT30;58451;51.550;7.208;2022-09-03T01:06:57;14.70;52.70
70830;SHT30;58451;51.550;7.208;2022-09-03T01:10:14;14.67;52.90
70830;SHT30;58451;51.550;7.208;2022-09-03T01:13:02;14.66;53.01
70830;SHT30;58451;51.550;7.208;2022-09-03T01:18:43;14.64;53.41
70830;SHT30;58451;51.550;7.208;2022-09-03T01:22:00;14.64;53.37
70830;SHT30;58451;51.550;7.208;2022-09-03T01:30:18;14.63;53.42
70830;SHT30;58451;51.550;7.208;2022-09-03T01:35:45;14.64;53.61
70830;SHT30;58451;51.550;7.208;2022-09-03T01:38:29;14.65;53.52
70830;SHT30;58451;51.550;7.208;2022-09-03T01:41:17;14.66;53.59
70830;SHT30;58451;51.550;7.208;2022-09-03T01:47:01;14.66;53.61
70830;SHT30;58451;51.550;7.208;2022-09-03T01:52:42;14.66;53.62
70830;SHT30;58451;51.550;7.208;2022-09-03T01:58:36;14.61;53.59
70830;SHT30;58451;51.550;7.208;2022-09-03T02:01:10;14.59;53.66
70830;SHT30;58451;51.550;7.208;2022-09-03T02:03:49;14.56;53.73
70830;SHT30;58451;51.550;7.208;2022-09-03T02:06:17;14.53;53.77
70830;SHT30;58451;51.550;7.208;2022-09-03T02:08:46;14.48;53.90
70830;SHT30;58451;51.550;7.208;2022-09-03T02:11:13;14.43;54.03
70830;SHT30;58451;51.550;7.208;2022-09-03T02:13:41;14.39;54.05
70830;SHT30;58451;51.550;7.208;2022-09-03T02:16:14;14.34;54.15
70830;SHT30;58451;51.550;7.208;2022-09-03T02:19:02;14.28;54.36
70830;SHT30;58451;51.550;7.208;2022-09-03T02:21:39;14.22;54.28
70830;SHT30;58451;51.550;7.208;2022-09-03T02:24:19;14.16;54.46
70830;SHT30;58451;51.550;7.208;2022-09-03T02:26:46;14.10;54.76
70830;SHT30;58451;51.550;7.208;2022-09-03T02:29:13;14.04;54.83
70830;SHT30;58451;51.550;7.208;2022-09-03T02:31:43;13.98;54.93
70830;SHT30;58451;51.550;7.208;2022-09-03T02:34:10;13.93;55.10
70830;SHT30;58451;51.550;7.208;2022-09-03T02:36:39;13.88;55.26
70830;SHT30;58451;51.550;7.208;2022-09-03T02:39:13;13.84;55.41
70830;SHT30;58451;51.550;7.208;2022-09-03T02:41:42;13.78;55.46
70830;SHT30;58451;51.550;7.208;2022-09-03T02:46:58;13.71;55.75
70830;SHT30;58451;51.550;7.208;2022-09-03T02:49:28;13.68;55.94
70830;SHT30;58451;51.550;7.208;2022-09-03T02:51:57;13.65;56.14
70830;SHT30;58451;51.550;7.208;2022-09-03T02:54:32;13.63;56.30
70830;SHT30;58451;51.550;7.208;2022-09-03T02:57:01;13.62;56.34
70830;SHT30;58451;51.550;7.208;2022-09-03T02:59:28;13.59;56.40
70830;SHT30;58451;51.550;7.208;2022-09-03T03:01:55;13.59;56.57
70830;SHT30;58451;51.550;7.208;2022-09-03T03:04:26;13.57;56.64
70830;SHT30;58451;51.550;7.208;2022-09-03T03:06:55;13.54;56.71
70830;SHT30;58451;51.550;7.208;2022-09-03T03:09:23;13.52;56.79
70830;SHT30;58451;51.550;7.208;2022-09-03T03:11:50;13.49;56.82
70830;SHT30;58451;51.550;7.208;2022-09-03T03:14:17;13.45;56.93
70830;SHT30;58451;51.550;7.208;2022-09-03T03:16:44;13.41;57.01
70830;SHT30;58451;51.550;7.208;2022-09-03T03:19:11;13.38;57.14
70830;SHT30;58451;51.550;7.208;2022-09-03T03:21:37;13.36;57.29
70830;SHT30;58451;51.550;7.208;2022-09-03T03:24:05;13.35;57.73
70830;SHT30;58451;51.550;7.208;2022-09-03T03:26:33;13.32;57.54
70830;SHT30;58451;51.550;7.208;2022-09-03T03:29:01;13.29;57.60
70830;SHT30;58451;51.550;7.208;2022-09-03T03:31:32;13.25;57.49
70830;SHT30;58451;51.550;7.208;2022-09-03T03:34:00;13.23;57.52
70830;SHT30;58451;51.550;7.208;2022-09-03T03:36:30;13.20;57.77
70830;SHT30;58451;51.550;7.208;2022-09-03T03:38:59;13.16;57.88
70830;SHT30;58451;51.550;7.208;2022-09-03T03:41:30;13.14;58.77
70830;SHT30;58451;51.550;7.208;2022-09-03T03:44:01;13.12;58.37
70830;SHT30;58451;51.550;7.208;2022-09-03T03:46:31;13.09;58.33
70830;SHT30;58451;51.550;7.208;2022-09-03T03:49:02;13.05;58.40
70830;SHT30;58451;51.550;7.208;2022-09-03T03:51:32;13.03;58.40
70830;SHT30;58451;51.550;7.208;2022-09-03T03:54:00;13.03;58.58
70830;SHT30;58451;51.550;7.208;2022-09-03T03:56:31;13.03;58.54
70830;SHT30;58451;51.550;7.208;2022-09-03T03:58:59;13.03;58.67
70830;SHT30;58451;51.550;7.208;2022-09-03T04:01:27;13.04;58.66
70830;SHT30;58451;51.550;7.208;2022-09-03T04:03:55;13.04;58.72
70830;SHT30;58451;51.550;7.208;2022-09-03T04:06:25;13.03;58.79
70830;SHT30;58451;51.550;7.208;2022-09-03T04:08:52;13.02;58.71
70830;SHT30;58451;51.550;7.208;2022-09-03T04:11:20;13.02;58.75
70830;SHT30;58451;51.550;7.208;2022-09-03T04:13:49;13.01;58.68
70830;SHT30;58451;51.550;7.208;2022-09-03T04:16:21;13.01;58.74
70830;SHT30;58451;51.550;7.208;2022-09-03T04:18:54;13.00;58.86
70830;SHT30;58451;51.550;7.208;2022-09-03T04:21:26;13.00;59.02
70830;SHT30;58451;51.550;7.208;2022-09-03T04:23:55;13.00;59.03
70830;SHT30;58451;51.550;7.208;2022-09-03T04:26:27;12.97;59.02
70830;SHT30;58451;51.550;7.208;2022-09-03T04:29:07;12.95;59.00
70830;SHT30;58451;51.550;7.208;2022-09-03T04:31:36;12.96;59.20
70830;SHT30;58451;51.550;7.208;2022-09-03T04:34:05;12.94;59.05
70830;SHT30;58451;51.550;7.208;2022-09-03T04:36:32;12.93;59.29
70830;SHT30;58451;51.550;7.208;2022-09-03T04:39:00;12.94;59.02
70830;SHT30;58451;51.550;7.208;2022-09-03T04:41:28;12.95;59.00
70830;SHT30;58451;51.550;7.208;2022-09-03T04:43:57;12.93;59.22
70830;SHT30;58451;51.550;7.208;2022-09-03T04:46:25;12.93;60.01
70830;SHT30;58451;51.550;7.208;2022-09-03T04:48:58;12.94;59.24
70830;SHT30;58451;51.550;7.208;2022-09-03T04:51:26;12.94;59.41
70830;SHT30;58451;51.550;7.208;2022-09-03T04:53:57;12.96;59.10
70830;SHT30;58451;51.550;7.208;2022-09-03T04:56:27;12.96;59.06
70830;SHT30;58451;51.550;7.208;2022-09-03T04:58:58;12.97;59.04
70830;SHT30;58451;51.550;7.208;2022-09-03T05:01:28;13.00;59.39
70830;SHT30;58451;51.550;7.208;2022-09-03T05:03:58;13.03;58.98
70830;SHT30;58451;51.550;7.208;2022-09-03T05:06:26;13.04;59.17
70830;SHT30;58451;51.550;7.208;2022-09-03T05:08:56;13.07;59.00
70830;SHT30;58451;51.550;7.208;2022-09-03T05:11:25;13.12;58.90
70830;SHT30;58451;51.550;7.208;2022-09-03T05:13:55;13.15;59.04
70830;SHT30;58451;51.550;7.208;2022-09-03T05:16:25;13.22;58.89
70830;SHT30;58451;51.550;7.208;2022-09-03T05:18:56;13.26;58.83
70830;SHT30;58451;51.550;7.208;2022-09-03T05:21:26;13.32;58.82
70830;SHT30;58451;51.550;7.208;2022-09-03T05:23:55;13.38;58.85
70830;SHT30;58451;51.550;7.208;2022-09-03T05:26:24;13.44;58.63
70830;SHT30;58451;51.550;7.208;2022-09-03T05:28:54;13.49;58.47
70830;SHT30;58451;51.550;7.208;2022-09-03T05:31:25;13.56;58.75
70830;SHT30;58451;51.550;7.208;2022-09-03T05:33:57;13.62;58.60
70830;SHT30;58451;51.550;7.208;2022-09-03T05:36:29;13.70;58.62
70830;SHT30;58451;51.550;7.208;2022-09-03T05:39:02;13.78;58.62
70830;SHT30;58451;51.550;7.208;2022-09-03T05:41:31;13.88;58.41
70830;SHT30;58451;51.550;7.208;2022-09-03T05:43:59;13.98;58.30
70830;SHT30;58451;51.550;7.208;2022-09-03T05:46:27;14.08;58.10
70830;SHT30;58451;51.550;7.208;2022-09-03T05:48:58;14.17;57.90
70830;SHT30;58451;51.550;7.208;2022-09-03T05:51:27;14.28;57.90
70830;SHT30;58451;51.550;7.208;2022-09-03T05:53:56;14.38;57.58
70830;SHT30;58451;51.550;7.208;2022-09-03T05:56:24;14.46;57.50
70830;SHT30;58451;51.550;7.208;2022-09-03T05:58:55;14.58;57.31
70830;SHT30;58451;51.550;7.208;2022-09-03T06:01:31;14.69;57.12
70830;SHT30;58451;51.550;7.208;2022-09-03T06:04:02;14.79;56.97
70830;SHT30;58451;51.550;7.208;2022-09-03T06:06:31;14.88;56.91
70830;SHT30;58451;51.550;7.208;2022-09-03T06:09:08;14.99;56.67
70830;SHT30;58451;51.550;7.208;2022-09-03T06:11:39;15.11;56.46
70830;SHT30;58451;51.550;7.208;2022-09-03T06:14:09;15.21;56.27
70830;SHT30;58451;51.550;7.208;2022-09-03T06:16:40;15.32;56.07
70830;SHT30;58451;51.550;7.208;2022-09-03T06:19:10;15.43;55.89
70830;SHT30;58451;51.550;7.208;2022-09-03T06:21:40;15.53;55.75
70830;SHT30;58451;51.550;7.208;2022-09-03T06:24:10;15.66;55.53
70830;SHT30;58451;51.550;7.208;2022-09-03T06:26:46;15.79;55.34
70830;SHT30;58451;51.550;7.208;2022-09-03T06:29:13;15.92;55.21
70830;SHT30;58451;51.550;7.208;2022-09-03T06:31:40;16.04;54.94
70830;SHT30;58451;51.550;7.208;2022-09-03T06:34:08;16.15;54.72
70830;SHT30;58451;51.550;7.208;2022-09-03T06:36:35;16.28;54.49
70830;SHT30;58451;51.550;7.208;2022-09-03T06:39:01;16.39;54.25
70830;SHT30;58451;51.550;7.208;2022-09-03T06:41:29;16.51;54.01
70830;SHT30;58451;51.550;7.208;2022-09-03T06:44:01;16.65;53.90
70830;SHT30;58451;51.550;7.208;2022-09-03T06:46:31;16.78;53.68
70830;SHT30;58451;51.550;7.208;2022-09-03T06:49:01;16.93;53.52
70830;SHT30;58451;51.550;7.208;2022-09-03T06:51:29;17.07;53.39
70830;SHT30;58451;51.550;7.208;2022-09-03T06:54:03;17.17;53.01
70830;SHT30;58451;51.550;7.208;2022-09-03T06:56:34;17.30;52.95
70830;SHT30;58451;51.550;7.208;2022-09-03T06:59:07;17.42;52.67
70830;SHT30;58451;51.550;7.208;2022-09-03T07:01:40;17.50;52.37
70830;SHT30;58451;51.550;7.208;2022-09-03T07:04:12;17.61;52.12
70830;SHT30;58451;51.550;7.208;2022-09-03T07:06:45;17.74;51.97
70830;SHT30;58451;51.550;7.208;2022-09-03T07:09:13;17.85;51.78
70830;SHT30;58451;51.550;7.208;2022-09-03T07:11:41;17.95;51.53
70830;SHT30;58451;51.550;7.208;2022-09-03T07:14:15;18.07;51.33
70830;SHT30;58451;51.550;7.208;2022-09-03T07:16:45;18.20;51.14
70830;SHT30;58451;51.550;7.208;2022-09-03T07:19:14;18.30;50.89
70830;SHT30;58451;51.550;7.208;2022-09-03T07:21:43;18.38;50.57
70830;SHT30;58451;51.550;7.208;2022-09-03T07:24:16;18.47;50.37
70830;SHT30;58451;51.550;7.208;2022-09-03T07:26:48;18.56;50.21
70830;SHT30;58451;51.550;7.208;2022-09-03T07:29:15;18.68;50.06
70830;SHT30;58451;51.550;7.208;2022-09-03T07:31:47;18.83;49.83
70830;SHT30;58451;51.550;7.208;2022-09-03T07:34:18;18.99;49.67
70830;SHT30;58451;51.550;7.208;2022-09-03T07:36:47;19.17;49.42
70830;SHT30;58451;51.550;7.208;2022-09-03T07:39:19;19.29;49.24
70830;SHT30;58451;51.550;7.208;2022-09-03T07:41:46;19.41;48.99
70830;SHT30;58451;51.550;7.208;2022-09-03T07:44:13;19.57;48.51
70830;SHT30;58451;51.550;7.208;2022-09-03T07:46:48;19.66;48.36
70830;SHT30;58451;51.550;7.208;2022-09-03T07:49:17;19.75;48.26
70830;SHT30;58451;51.550;7.208;2022-09-03T07:51:46;19.86;48.01
70830;SHT30;58451;51.550;7.208;2022-09-03T07:54:16;19.94;47.65
70830;SHT30;58451;51.550;7.208;2022-09-03T07:56:43;20.06;47.59
70830;SHT30;58451;51.550;7.208;2022-09-03T07:59:10;20.17;47.28
70830;SHT30;58451;51.550;7.208;2022-09-03T08:01:37;20.27;47.17
70830;SHT30;58451;51.550;7.208;2022-09-03T08:04:07;20.40;46.94
70830;SHT30;58451;51.550;7.208;2022-09-03T08:06:35;20.51;46.71
70830;SHT30;58451;51.550;7.208;2022-09-03T08:09:05;20.62;46.52
70830;SHT30;58451;51.550;7.208;2022-09-03T08:11:40;20.76;46.09
70830;SHT30;58451;51.550;7.208;2022-09-03T08:14:10;20.89;45.89
70830;SHT30;58451;51.550;7.208;2022-09-03T08:16:39;20.96;45.59
70830;SHT30;58451;51.550;7.208;2022-09-03T08:19:12;21.08;45.64
70830;SHT30;58451;51.550;7.208;2022-09-03T08:21:40;21.19;45.52
70830;SHT30;58451;51.550;7.208;2022-09-03T08:24:07;21.31;45.16
70830;SHT30;58451;51.550;7.208;2022-09-03T08:26:38;21.45;45.08
70830;SHT30;58451;51.550;7.208;2022-09-03T08:29:15;21.59;44.70
70830;SHT30;58451;51.550;7.208;2022-09-03T08:31:43;21.71;44.52
70830;SHT30;58451;51.550;7.208;2022-09-03T08:34:10;21.77;44.31
70830;SHT30;58451;51.550;7.208;2022-09-03T08:36:38;21.76;44.23
70830;SHT30;58451;51.550;7.208;2022-09-03T08:39:09;21.82;43.71
70830;SHT30;58451;51.550;7.208;2022-09-03T08:50:15;22.07;43.57
70830;SHT30;58451;51.550;7.208;2022-09-03T08:55:52;22.59;43.00
70830;SHT30;58451;51.550;7.208;2022-09-03T08:58:35;22.87;42.77
70830;SHT30;58451;51.550;7.208;2022-09-03T09:09:59;23.61;41.15
70830;SHT30;58451;51.550;7.208;2022-09-03T09:15:48;23.66;41.07
70830;SHT30;58451;51.550;7.208;2022-09-03T09:18:52;23.72;40.73
70830;SHT30;58451;51.550;7.208;2022-09-03T09:21:39;23.70;40.81
70830;SHT30;58451;51.550;7.208;2022-09-03T09:24:22;23.77;40.78
70830;SHT30;58451;51.550;7.208;2022-09-03T09:26:54;23.82;40.69
70830;SHT30;58451;51.550;7.208;2022-09-03T09:29:30;23.92;40.59
70830;SHT30;58451;51.550;7.208;2022-09-03T09:32:01;23.99;39.91
70830;SHT30;58451;51.550;7.208;2022-09-03T09:34:34;24.02;39.71
70830;SHT30;58451;51.550;7.208;2022-09-03T09:37:05;24.06;39.40
70830;SHT30;58451;51.550;7.208;2022-09-03T09:39:39;24.13;39.55
70830;SHT30;58451;51.550;7.208;2022-09-03T09:42:26;24.24;39.37
70830;SHT30;58451;51.550;7.208;2022-09-03T09:44:55;24.32;39.12
70830;SHT30;58451;51.550;7.208;2022-09-03T09:47:28;24.42;38.74
70830;SHT30;58451;51.550;7.208;2022-09-03T09:50:02;24.52;38.76
70830;SHT30;58451;51.550;7.208;2022-09-03T09:53:06;24.62;38.83
70830;SHT30;58451;51.550;7.208;2022-09-03T09:58:20;24.81;38.25
70830;SHT30;58451;51.550;7.208;2022-09-03T10:00:55;24.84;38.03
70830;SHT30;58451;51.550;7.208;2022-09-03T10:03:32;24.96;37.95
70830;SHT30;58451;51.550;7.208;2022-09-03T10:06:04;25.08;37.83
70830;SHT30;58451;51.550;7.208;2022-09-03T10:09:14;25.15;37.53
70830;SHT30;58451;51.550;7.208;2022-09-03T10:12:13;25.21;37.51
70830;SHT30;58451;51.550;7.208;2022-09-03T10:15:16;25.38;37.26
70830;SHT30;58451;51.550;7.208;2022-09-03T10:18:15;25.50;37.40
70830;SHT30;58451;51.550;7.208;2022-09-03T10:21:12;25.61;36.90
70830;SHT30;58451;51.550;7.208;2022-09-03T10:23:55;25.70;36.62
70830;SHT30;58451;51.550;7.208;2022-09-03T10:26:57;25.78;36.60
70830;SHT30;58451;51.550;7.208;2022-09-03T10:29:24;25.85;36.34
70830;SHT30;58451;51.550;7.208;2022-09-03T10:35:11;26.07;36.18
70830;SHT30;58451;51.550;7.208;2022-09-03T10:37:59;26.20;36.28
70830;SHT30;58451;51.550;7.208;2022-09-03T10:40:43;26.30;36.24
70830;SHT30;58451;51.550;7.208;2022-09-03T10:43:32;26.43;36.03
70830;SHT30;58451;51.550;7.208;2022-09-03T10:46:51;26.57;35.83
70830;SHT30;58451;51.550;7.208;2022-09-03T10:49:49;26.73;35.65
70830;SHT30;58451;51.550;7.208;2022-09-03T10:52:30;26.82;35.35
70830;SHT30;58451;51.550;7.208;2022-09-03T10:55:13;26.89;35.24
70830;SHT30;58451;51.550;7.208;2022-09-03T11:00:48;27.03;34.70
70830;SHT30;58451;51.550;7.208;2022-09-03T11:06:22;27.08;33.65
70830;SHT30;58451;51.550;7.208;2022-09-03T11:11:33;27.11;33.73
70830;SHT30;58451;51.550;7.208;2022-09-03T11:14:09;27.18;33.75
70830;SHT30;58451;51.550;7.208;2022-09-03T11:16:43;27.34;33.97
70830;SHT30;58451;51.550;7.208;2022-09-03T11:19:15;27.51;34.05
70830;SHT30;58451;51.550;7.208;2022-09-03T11:21:47;27.71;33.99
70830;SHT30;58451;51.550;7.208;2022-09-03T11:24:21;27.85;33.17
70830;SHT30;58451;51.550;7.208;2022-09-03T11:26:54;27.86;32.74
70830;SHT30;58451;51.550;7.208;2022-09-03T11:29:33;27.97;33.40
70830;SHT30;58451;51.550;7.208;2022-09-03T11:32:17;28.05;33.13
70830;SHT30;58451;51.550;7.208;2022-09-03T11:35:26;28.23;33.19
70830;SHT30;58451;51.550;7.208;2022-09-03T11:38:00;28.42;32.59
70830;SHT30;58451;51.550;7.208;2022-09-03T11:40:31;28.59;31.73
70830;SHT30;58451;51.550;7.208;2022-09-03T11:43:44;28.48;31.69
70830;SHT30;58451;51.550;7.208;2022-09-03T11:46:05;28.37;31.70
70830;SHT30;58451;51.550;7.208;2022-09-03T11:48:49;28.39;31.92
70830;SHT30;58451;51.550;7.208;2022-09-03T11:51:28;28.57;32.12
70830;SHT30;58451;51.550;7.208;2022-09-03T11:54:04;28.72;31.83
70830;SHT30;58451;51.550;7.208;2022-09-03T11:56:46;28.72;31.92
70830;SHT30;58451;51.550;7.208;2022-09-03T11:59:19;28.77;32.19
70830;SHT30;58451;51.550;7.208;2022-09-03T12:11:25;29.19;31.39
70830;SHT30;58451;51.550;7.208;2022-09-03T12:17:32;28.70;31.23
70830;SHT30;58451;51.550;7.208;2022-09-03T12:20:37;28.68;31.46
70830;SHT30;58451;51.550;7.208;2022-09-03T12:23:12;28.69;31.33
70830;SHT30;58451;51.550;7.208;2022-09-03T12:25:51;28.72;31.05
70830;SHT30;58451;51.550;7.208;2022-09-03T12:28:19;28.75;31.32
70830;SHT30;58451;51.550;7.208;2022-09-03T12:30:50;28.83;31.20
70830;SHT30;58451;51.550;7.208;2022-09-03T12:33:20;28.93;31.33
70830;SHT30;58451;51.550;7.208;2022-09-03T12:35:58;29.18;31.29
70830;SHT30;58451;51.550;7.208;2022-09-03T12:38:27;29.41;31.00
70830;SHT30;58451;51.550;7.208;2022-09-03T12:41:27;29.48;31.11
70830;SHT30;58451;51.550;7.208;2022-09-03T12:43:57;29.49;30.33
70830;SHT30;58451;51.550;7.208;2022-09-03T12:46:26;29.47;30.64
70830;SHT30;58451;51.550;7.208;2022-09-03T12:49:03;29.58;30.70
70830;SHT30;58451;51.550;7.208;2022-09-03T12:52:00;29.66;30.81
70830;SHT30;58451;51.550;7.208;2022-09-03T13:03:50;29.18;30.20
70830;SHT30;58451;51.550;7.208;2022-09-03T13:06:31;28.92;30.77
70830;SHT30;58451;51.550;7.208;2022-09-03T13:09:15;28.91;31.14
70830;SHT30;58451;51.550;7.208;2022-09-03T13:11:49;28.94;31.20
70830;SHT30;58451;51.550;7.208;2022-09-03T13:14:17;29.02;31.30
70830;SHT30;58451;51.550;7.208;2022-09-03T13:30:54;29.05;31.50
70830;SHT30;58451;51.550;7.208;2022-09-03T13:33:34;29.12;31.45
70830;SHT30;58451;51.550;7.208;2022-09-03T13:36:18;29.15;31.43
70830;SHT30;58451;51.550;7.208;2022-09-03T13:39:01;29.19;31.28
70830;SHT30;58451;51.550;7.208;2022-09-03T13:45:04;29.23;31.41
70830;SHT30;58451;51.550;7.208;2022-09-03T13:50:30;29.34;31.36
70830;SHT30;58451;51.550;7.208;2022-09-03T13:53:31;29.30;31.36
70830;SHT30;58451;51.550;7.208;2022-09-03T13:56:29;29.34;31.45
70830;SHT30;58451;51.550;7.208;2022-09-03T14:10:54;29.39;32.04
70830;SHT30;58451;51.550;7.208;2022-09-03T14:17:22;29.42;32.22
70830;SHT30;58451;51.550;7.208;2022-09-03T14:25:24;29.42;32.58
70830;SHT30;58451;51.550;7.208;2022-09-03T14:28:10;29.48;32.63
70830;SHT30;58451;51.550;7.208;2022-09-03T15:05:20;32.57;29.59
70830;SHT30;58451;51.550;7.208;2022-09-03T15:08:31;32.51;29.41
70830;SHT30;58451;51.550;7.208;2022-09-03T15:11:21;32.51;29.71
70830;SHT30;58451;51.550;7.208;2022-09-03T15:16:58;32.51;29.62
70830;SHT30;58451;51.550;7.208;2022-09-03T15:22:33;35.94;26.82
70830;SHT30;58451;51.550;7.208;2022-09-03T15:36:49;34.41;27.03
70830;SHT30;58451;51.550;7.208;2022-09-03T15:39:24;35.23;26.69
70830;SHT30;58451;51.550;7.208;2022-09-03T15:42:00;37.38;24.78
70830;SHT30;58451;51.550;7.208;2022-09-03T15:53:05;43.05;20.01
70830;SHT30;58451;51.550;7.208;2022-09-03T15:56:00;41.13;20.78
70830;SHT30;58451;51.550;7.208;2022-09-03T16:01:50;38.59;22.37
70830;SHT30;58451;51.550;7.208;2022-09-03T16:05:06;37.73;22.53
70830;SHT30;58451;51.550;7.208;2022-09-03T16:16:59;37.12;23.71
70830;SHT30;58451;51.550;7.208;2022-09-03T16:22:27;34.96;25.11
70830;SHT30;58451;51.550;7.208;2022-09-03T16:25:14;34.12;25.87
70830;SHT30;58451;51.550;7.208;2022-09-03T16:47:10;34.05;26.94
70830;SHT30;58451;51.550;7.208;2022-09-03T16:55:52;34.73;26.45
70830;SHT30;58451;51.550;7.208;2022-09-03T17:15:48;30.63;30.18
70830;SHT30;58451;51.550;7.208;2022-09-03T17:23:51;29.56;31.45
70830;SHT30;58451;51.550;7.208;2022-09-03T17:35:35;28.15;33.31
70830;SHT30;58451;51.550;7.208;2022-09-03T17:43:39;27.41;34.63
70830;SHT30;58451;51.550;7.208;2022-09-03T17:46:30;27.15;35.40
70830;SHT30;58451;51.550;7.208;2022-09-03T17:49:22;26.91;35.74
70830;SHT30;58451;51.550;7.208;2022-09-03T17:52:03;26.72;36.39
70830;SHT30;58451;51.550;7.208;2022-09-03T17:54:50;26.49;37.30
70830;SHT30;58451;51.550;7.208;2022-09-03T17:57:36;26.26;37.69
70830;SHT30;58451;51.550;7.208;2022-09-03T18:00:09;26.01;38.98
70830;SHT30;58451;51.550;7.208;2022-09-03T18:03:25;25.75;39.46
70830;SHT30;58451;51.550;7.208;2022-09-03T18:06:03;25.50;40.29
70830;SHT30;58451;51.550;7.208;2022-09-03T18:08:57;25.34;40.09
70830;SHT30;58451;51.550;7.208;2022-09-03T18:17:02;25.01;41.21
70830;SHT30;58451;51.550;7.208;2022-09-03T18:25:37;24.70;43.76
70830;SHT30;58451;51.550;7.208;2022-09-03T18:28:39;24.61;43.07
70830;SHT30;58451;51.550;7.208;2022-09-03T18:31:50;24.53;44.09
70830;SHT30;58451;51.550;7.208;2022-09-03T18:34:35;24.47;43.41
70830;SHT30;58451;51.550;7.208;2022-09-03T18:37:22;24.42;43.79
70830;SHT30;58451;51.550;7.208;2022-09-03T18:40:20;24.37;43.91
70830;SHT30;58451;51.550;7.208;2022-09-03T18:43:20;24.31;43.89
70830;SHT30;58451;51.550;7.208;2022-09-03T18:46:28;24.23;44.14
70830;SHT30;58451;51.550;7.208;2022-09-03T18:50:11;24.16;44.42
70830;SHT30;58451;51.550;7.208;2022-09-03T18:53:01;24.09;44.98
70830;SHT30;58451;51.550;7.208;2022-09-03T19:02:22;23.82;44.87
70830;SHT30;58451;51.550;7.208;2022-09-03T19:11:54;23.47;45.70
70830;SHT30;58451;51.550;7.208;2022-09-03T19:14:59;23.34;46.50
70830;SHT30;58451;51.550;7.208;2022-09-03T19:18:08;23.23;46.56
70830;SHT30;58451;51.550;7.208;2022-09-03T19:24:27;22.98;47.64
70830;SHT30;58451;51.550;7.208;2022-09-03T19:30:28;22.76;49.62
70830;SHT30;58451;51.550;7.208;2022-09-03T19:46:56;22.16;51.02
70830;SHT30;58451;51.550;7.208;2022-09-03T19:52:52;21.97;51.77
70830;SHT30;58451;51.550;7.208;2022-09-03T19:55:45;21.88;51.89
70830;SHT30;58451;51.550;7.208;2022-09-03T19:58:39;21.79;53.39
70830;SHT30;58451;51.550;7.208;2022-09-03T20:01:34;21.70;52.91
70830;SHT30;58451;51.550;7.208;2022-09-03T20:04:25;21.61;52.92
70830;SHT30;58451;51.550;7.208;2022-09-03T20:07:17;21.52;53.38
70830;SHT30;58451;51.550;7.208;2022-09-03T20:10:06;21.42;55.12
70830;SHT30;58451;51.550;7.208;2022-09-03T20:21:30;21.12;54.58
70830;SHT30;58451;51.550;7.208;2022-09-03T20:27:18;20.94;55.75
70830;SHT30;58451;51.550;7.208;2022-09-03T20:30:04;20.85;56.39
70830;SHT30;58451;51.550;7.208;2022-09-03T20:44:05;20.50;57.24
70830;SHT30;58451;51.550;7.208;2022-09-03T21:00:42;20.13;58.91
70830;SHT30;58451;51.550;7.208;2022-09-03T21:03:21;20.08;58.88
70830;SHT30;58451;51.550;7.208;2022-09-03T21:06:29;20.02;58.66
70830;SHT30;58451;51.550;7.208;2022-09-03T21:14:59;19.86;58.85
70830;SHT30;58451;51.550;7.208;2022-09-03T21:17:58;19.80;58.99
70830;SHT30;58451;51.550;7.208;2022-09-03T21:21:01;19.74;59.14
70830;SHT30;58451;51.550;7.208;2022-09-03T21:23:39;19.67;59.21
70830;SHT30;58451;51.550;7.208;2022-09-03T21:26:24;19.61;59.33
70830;SHT30;58451;51.550;7.208;2022-09-03T21:29:02;19.55;59.50
70830;SHT30;58451;51.550;7.208;2022-09-03T21:31:52;19.48;59.75
70830;SHT30;58451;51.550;7.208;2022-09-03T21:37:20;19.39;60.14
70830;SHT30;58451;51.550;7.208;2022-09-03T21:39:51;19.37;60.08
70830;SHT30;58451;51.550;7.208;2022-09-03T21:42:36;19.32;60.40
70830;SHT30;58451;51.550;7.208;2022-09-03T21:45:21;19.25;60.59
70830;SHT30;58451;51.550;7.208;2022-09-03T21:48:04;19.17;60.68
70830;SHT30;58451;51.550;7.208;2022-09-03T21:50:43;19.11;61.06
70830;SHT30;58451;51.550;7.208;2022-09-03T21:53:29;19.05;61.25
70830;SHT30;58451;51.550;7.208;2022-09-03T21:59:06;18.89;61.63
70830;SHT30;58451;51.550;7.208;2022-09-03T22:04:48;18.76;62.00
70830;SHT30;58451;51.550;7.208;2022-09-03T22:07:19;18.69;62.28
70830;SHT30;58451;51.550;7.208;2022-09-03T22:15:50;18.48;63.01
70830;SHT30;58451;51.550;7.208;2022-09-03T22:18:27;18.42;63.18
70830;SHT30;58451;51.550;7.208;2022-09-03T22:21:12;18.37;63.35
70830;SHT30;58451;51.550;7.208;2022-09-03T22:23:51;18.32;63.50
70830;SHT30;58451;51.550;7.208;2022-09-03T22:26:30;18.28;63.68
70830;SHT30;58451;51.550;7.208;2022-09-03T22:29:13;18.23;63.89
70830;SHT30;58451;51.550;7.208;2022-09-03T22:41:01;18.02;64.21
70830;SHT30;58451;51.550;7.208;2022-09-03T22:56:19;17.70;64.86
70830;SHT30;58451;51.550;7.208;2022-09-03T22:58:53;17.65;65.04
70830;SHT30;58451;51.550;7.208;2022-09-03T23:04:27;17.58;68.22
70830;SHT30;58451;51.550;7.208;2022-09-03T23:07:04;17.54;67.35
70830;SHT30;58451;51.550;7.208;2022-09-03T23:09:54;17.49;66.66
70830;SHT30;58451;51.550;7.208;2022-09-03T23:12:42;17.45;66.37
70830;SHT30;58451;51.550;7.208;2022-09-03T23:15:23;17.41;66.44
70830;SHT30;58451;51.550;7.208;2022-09-03T23:18:04;17.36;66.55
70830;SHT30;58451;51.550;7.208;2022-09-03T23:20:41;17.31;66.83
70830;SHT30;58451;51.550;7.208;2022-09-03T23:24:05;17.27;66.96
70830;SHT30;58451;51.550;7.208;2022-09-03T23:26:35;17.23;67.26
70830;SHT30;58451;51.550;7.208;2022-09-03T23:32:01;17.17;67.52
70830;SHT30;58451;51.550;7.208;2022-09-03T23:34:30;17.15;67.64
70830;SHT30;58451;51.550;7.208;2022-09-03T23:40:26;17.06;67.85
70830;SHT30;58451;51.550;7.208;2022-09-03T23:43:36;17.02;67.93
70830;SHT30;58451;51.550;7.208;2022-09-03T23:59:05;16.76;68.45
